sensor_id;sensor_type;location;lat;lon;timestamp;P1;P2;P0
34240;PMS7003;20503;50.200;19.508;2023-11-21T00:01:00;13;11;7
34240;PMS7003;20503;50.200;19.508;2023-11-21T00:02:11;10;9;6
34240;PMS7003;20503;50.200;19.508;2023-11-21T00:03:14;13;10;7
34240;PMS7003;20503;50.200;19.508;2023-11-21T00:04:20;14;9;6
34240;PMS7003;20503;50.200;19.508;2023-11-21T00:05:23;14;9;6
34240;PMS7003;20503;50.200;19.508;2023-11-21T00:06:25;11;8;5
34240;PMS7003;20503;50.200;19.508;2023-11-21T00:07:28;13;8;5
34240;PMS7003;20503;50.200;19.508;2023-11-21T00:08:31;13;8;5
34240;PMS7003;20503;50.200;19.508;2023-11-21T00:09:37;11;7;5
34240;PMS7003;20503;50.200;19.508;2023-11-21T00:10:44;11;9;5
34240;PMS7003;20503;50.200;19.508;2023-11-21T00:11:47;11;9;6
34240;PMS7003;20503;50.200;19.508;2023-11-21T00:12:50;11;9;6
34240;PMS7003;20503;50.200;19.508;2023-11-21T00:13:56;10;9;6
34240;PMS7003;20503;50.200;19.508;2023-11-21T00:14:59;10;9;6
34240;PMS7003;20503;50.200;19.508;2023-11-21T00:16:13;13;10;6
34240;PMS7003;20503;50.200;19.508;2023-11-21T00:17:16;13;10;6
34240;PMS7003;20503;50.200;19.508;2023-11-21T00:18:20;13;10;6
34240;PMS7003;20503;50.200;19.508;2023-11-21T00:19:22;13;11;7
34240;PMS7003;20503;50.200;19.508;2023-11-21T00:20:24;13;11;7
34240;PMS7003;20503;50.200;19.508;2023-11-21T00:21:28;13;11;7
34240;PMS7003;20503;50.200;19.508;2023-11-21T00:22:31;13;11;7
34240;PMS7003;20503;50.200;19.508;2023-11-21T00:23:34;15;11;8
34240;PMS7003;20503;50.200;19.508;2023-11-21T00:24:37;16;12;9
34240;PMS7003;20503;50.200;19.508;2023-11-21T00:25:41;16;12;9
34240;PMS7003;20503;50.200;19.508;2023-11-21T00:26:46;13;11;8
34240;PMS7003;20503;50.200;19.508;2023-11-21T00:27:50;13;11;8
34240;PMS7003;20503;50.200;19.508;2023-11-21T00:28:53;12;10;6
34240;PMS7003;20503;50.200;19.508;2023-11-21T00:29:56;12;9;5
34240;PMS7003;20503;50.200;19.508;2023-11-21T00:31:00;14;10;6
34240;PMS7003;20503;50.200;19.508;2023-11-21T00:32:03;12;8;5
34240;PMS7003;20503;50.200;19.508;2023-11-21T00:33:07;12;8;5
34240;PMS7003;20503;50.200;19.508;2023-11-21T00:34:12;13;10;5
34240;PMS7003;20503;50.200;19.508;2023-11-21T00:35:43;15;9;7
34240;PMS7003;20503;50.200;19.508;2023-11-21T00:36:47;14;11;7
34240;PMS7003;20503;50.200;19.508;2023-11-21T00:37:52;14;11;7
34240;PMS7003;20503;50.200;19.508;2023-11-21T00:38:53;11;9;6
34240;PMS7003;20503;50.200;19.508;2023-11-21T00:39:58;10;7;5
34240;PMS7003;20503;50.200;19.508;2023-11-21T00:41:00;9;6;4
34240;PMS7003;20503;50.200;19.508;2023-11-21T00:42:23;8;6;5
34240;PMS7003;20503;50.200;19.508;2023-11-21T00:43:26;8;6;5
34240;PMS7003;20503;50.200;19.508;2023-11-21T00:44:30;10;7;5
34240;PMS7003;20503;50.200;19.508;2023-11-21T00:45:34;10;7;5
34240;PMS7003;20503;50.200;19.508;2023-11-21T00:46:38;9;6;5
34240;PMS7003;20503;50.200;19.508;2023-11-21T00:47:41;9;7;5
34240;PMS7003;20503;50.200;19.508;2023-11-21T00:48:44;10;7;5
34240;PMS7003;20503;50.200;19.508;2023-11-21T00:49:47;11;9;5
34240;PMS7003;20503;50.200;19.508;2023-11-21T00:50:50;15;12;7
34240;PMS7003;20503;50.200;19.508;2023-11-21T00:51:54;12;10;6
34240;PMS7003;20503;50.200;19.508;2023-11-21T00:52:58;11;8;5
34240;PMS7003;20503;50.200;19.508;2023-11-21T00:54:03;11;8;5
34240;PMS7003;20503;50.200;19.508;2023-11-21T00:55:07;12;10;6
34240;PMS7003;20503;50.200;19.508;2023-11-21T00:56:13;12;10;6
34240;PMS7003;20503;50.200;19.508;2023-11-21T00:57:43;13;10;7
34240;PMS7003;20503;50.200;19.508;2023-11-21T00:58:47;13;10;7
34240;PMS7003;20503;50.200;19.508;2023-11-21T00:59:53;13;10;6
34240;PMS7003;20503;50.200;19.508;2023-11-21T01:00:56;13;10;6
34240;PMS7003;20503;50.200;19.508;2023-11-21T01:01:59;12;11;6
34240;PMS7003;20503;50.200;19.508;2023-11-21T01:03:03;12;11;6
34240;PMS7003;20503;50.200;19.508;2023-11-21T01:04:08;15;12;8
34240;PMS7003;20503;50.200;19.508;2023-11-21T01:05:12;15;12;8
34240;PMS7003;20503;50.200;19.508;2023-11-21T01:06:15;18;14;10
34240;PMS7003;20503;50.200;19.508;2023-11-21T01:07:18;26;21;13
34240;PMS7003;20503;50.200;19.508;2023-11-21T01:08:22;26;21;13
34240;PMS7003;20503;50.200;19.508;2023-11-21T01:09:26;26;19;12
34240;PMS7003;20503;50.200;19.508;2023-11-21T01:10:51;22;14;9
34240;PMS7003;20503;50.200;19.508;2023-11-21T01:11:55;19;12;8
34240;PMS7003;20503;50.200;19.508;2023-11-21T01:12:59;16;12;8
34240;PMS7003;20503;50.200;19.508;2023-11-21T01:14:06;16;12;8
34240;PMS7003;20503;50.200;19.508;2023-11-21T01:15:11;16;12;9
34240;PMS7003;20503;50.200;19.508;2023-11-21T01:16:17;16;12;9
34240;PMS7003;20503;50.200;19.508;2023-11-21T01:17:18;13;10;6
34240;PMS7003;20503;50.200;19.508;2023-11-21T01:18:23;10;8;6
34240;PMS7003;20503;50.200;19.508;2023-11-21T01:19:28;10;8;6
34240;PMS7003;20503;50.200;19.508;2023-11-21T01:20:31;12;9;5
34240;PMS7003;20503;50.200;19.508;2023-11-21T01:21:35;12;9;5
34240;PMS7003;20503;50.200;19.508;2023-11-21T01:22:40;10;8;5
34240;PMS7003;20503;50.200;19.508;2023-11-21T01:23:42;10;8;6
34240;PMS7003;20503;50.200;19.508;2023-11-21T01:24:44;10;8;6
34240;PMS7003;20503;50.200;19.508;2023-11-21T01:25:46;15;11;7
34240;PMS7003;20503;50.200;19.508;2023-11-21T01:26:49;15;11;7
34240;PMS7003;20503;50.200;19.508;2023-11-21T01:27:53;14;10;7
34240;PMS7003;20503;50.200;19.508;2023-11-21T01:29:04;14;11;7
34240;PMS7003;20503;50.200;19.508;2023-11-21T01:30:23;16;13;7
34240;PMS7003;20503;50.200;19.508;2023-11-21T01:31:26;15;11;6
34240;PMS7003;20503;50.200;19.508;2023-11-21T01:32:30;15;11;6
34240;PMS7003;20503;50.200;19.508;2023-11-21T01:33:32;13;9;6
34240;PMS7003;20503;50.200;19.508;2023-11-21T01:34:36;13;9;6
34240;PMS7003;20503;50.200;19.508;2023-11-21T01:35:39;11;8;6
34240;PMS7003;20503;50.200;19.508;2023-11-21T01:36:42;11;8;6
34240;PMS7003;20503;50.200;19.508;2023-11-21T01:37:56;12;10;6
34240;PMS7003;20503;50.200;19.508;2023-11-21T01:38:59;12;10;6
34240;PMS7003;20503;50.200;19.508;2023-11-21T01:40:04;13;9;6
34240;PMS7003;20503;50.200;19.508;2023-11-21T01:41:14;13;9;6
34240;PMS7003;20503;50.200;19.508;2023-11-21T01:42:17;13;11;6
34240;PMS7003;20503;50.200;19.508;2023-11-21T01:43:21;10;8;5
34240;PMS7003;20503;50.200;19.508;2023-11-21T01:44:22;10;8;6
34240;PMS7003;20503;50.200;19.508;2023-11-21T01:45:26;11;8;5
34240;PMS7003;20503;50.200;19.508;2023-11-21T01:46:31;11;8;6
34240;PMS7003;20503;50.200;19.508;2023-11-21T01:47:35;11;8;5
34240;PMS7003;20503;50.200;19.508;2023-11-21T01:48:43;11;7;5
34240;PMS7003;20503;50.200;19.508;2023-11-21T01:49:47;9;9;5
34240;PMS7003;20503;50.200;19.508;2023-11-21T01:50:51;9;9;5
34240;PMS7003;20503;50.200;19.508;2023-11-21T01:51:54;11;8;5
34240;PMS7003;20503;50.200;19.508;2023-11-21T01:52:57;11;8;5
34240;PMS7003;20503;50.200;19.508;2023-11-21T01:54:00;12;10;6
34240;PMS7003;20503;50.200;19.508;2023-11-21T01:55:07;12;8;6
34240;PMS7003;20503;50.200;19.508;2023-11-21T01:56:12;12;8;6
34240;PMS7003;20503;50.200;19.508;2023-11-21T01:57:16;13;9;6
34240;PMS7003;20503;50.200;19.508;2023-11-21T01:58:22;11;6;5
34240;PMS7003;20503;50.200;19.508;2023-11-21T01:59:24;11;7;5
34240;PMS7003;20503;50.200;19.508;2023-11-21T02:00:30;11;7;5
34240;PMS7003;20503;50.200;19.508;2023-11-21T02:01:34;11;9;5
34240;PMS7003;20503;50.200;19.508;2023-11-21T02:02:38;12;10;5
34240;PMS7003;20503;50.200;19.508;2023-11-21T02:03:41;12;10;5
34240;PMS7003;20503;50.200;19.508;2023-11-21T02:04:44;11;8;5
34240;PMS7003;20503;50.200;19.508;2023-11-21T02:05:47;11;8;5
34240;PMS7003;20503;50.200;19.508;2023-11-21T02:06:51;11;8;5
34240;PMS7003;20503;50.200;19.508;2023-11-21T02:07:56;10;7;5
34240;PMS7003;20503;50.200;19.508;2023-11-21T02:08:59;10;7;5
34240;PMS7003;20503;50.200;19.508;2023-11-21T02:10:03;12;9;6
34240;PMS7003;20503;50.200;19.508;2023-11-21T02:11:06;12;9;6
34240;PMS7003;20503;50.200;19.508;2023-11-21T02:12:10;12;9;5
34240;PMS7003;20503;50.200;19.508;2023-11-21T02:13:13;12;9;5
34240;PMS7003;20503;50.200;19.508;2023-11-21T02:14:17;10;6;5
34240;PMS7003;20503;50.200;19.508;2023-11-21T02:15:22;10;6;5
34240;PMS7003;20503;50.200;19.508;2023-11-21T02:16:30;11;7;4
34240;PMS7003;20503;50.200;19.508;2023-11-21T02:17:34;14;7;5
34240;PMS7003;20503;50.200;19.508;2023-11-21T02:18:38;11;7;5
34240;PMS7003;20503;50.200;19.508;2023-11-21T02:19:45;11;7;5
34240;PMS7003;20503;50.200;19.508;2023-11-21T02:20:52;12;9;5
34240;PMS7003;20503;50.200;19.508;2023-11-21T02:22:02;9;7;5
34240;PMS7003;20503;50.200;19.508;2023-11-21T02:23:07;11;6;5
34240;PMS7003;20503;50.200;19.508;2023-11-21T02:24:08;11;6;5
34240;PMS7003;20503;50.200;19.508;2023-11-21T02:25:10;12;10;6
34240;PMS7003;20503;50.200;19.508;2023-11-21T02:26:13;10;8;5
34240;PMS7003;20503;50.200;19.508;2023-11-21T02:27:15;10;8;5
34240;PMS7003;20503;50.200;19.508;2023-11-21T02:28:25;9;6;5
34240;PMS7003;20503;50.200;19.508;2023-11-21T02:29:30;9;6;5
34240;PMS7003;20503;50.200;19.508;2023-11-21T02:30:34;8;6;4
34240;PMS7003;20503;50.200;19.508;2023-11-21T02:31:38;7;7;5
34240;PMS7003;20503;50.200;19.508;2023-11-21T02:33:07;8;5;4
34240;PMS7003;20503;50.200;19.508;2023-11-21T02:34:09;7;5;3
34240;PMS7003;20503;50.200;19.508;2023-11-21T02:35:14;7;5;3
34240;PMS7003;20503;50.200;19.508;2023-11-21T02:36:21;5;4;3
34240;PMS7003;20503;50.200;19.508;2023-11-21T02:37:25;5;4;3
34240;PMS7003;20503;50.200;19.508;2023-11-21T02:38:28;8;5;4
34240;PMS7003;20503;50.200;19.508;2023-11-21T02:39:32;6;5;3
34240;PMS7003;20503;50.200;19.508;2023-11-21T02:40:36;6;4;3
34240;PMS7003;20503;50.200;19.508;2023-11-21T02:41:40;6;4;3
34240;PMS7003;20503;50.200;19.508;2023-11-21T02:42:45;8;5;4
34240;PMS7003;20503;50.200;19.508;2023-11-21T02:43:48;8;5;4
34240;PMS7003;20503;50.200;19.508;2023-11-21T02:44:49;6;5;4
34240;PMS7003;20503;50.200;19.508;2023-11-21T02:45:52;6;5;4
34240;PMS7003;20503;50.200;19.508;2023-11-21T02:46:55;6;5;4
34240;PMS7003;20503;50.200;19.508;2023-11-21T02:47:58;6;5;4
34240;PMS7003;20503;50.200;19.508;2023-11-21T02:49:05;7;4;4
34240;PMS7003;20503;50.200;19.508;2023-11-21T02:50:10;5;4;4
34240;PMS7003;20503;50.200;19.508;2023-11-21T02:51:14;5;4;4
34240;PMS7003;20503;50.200;19.508;2023-11-21T02:52:27;5;4;4
34240;PMS7003;20503;50.200;19.508;2023-11-21T02:53:31;5;4;3
34240;PMS7003;20503;50.200;19.508;2023-11-21T02:54:36;5;4;3
34240;PMS7003;20503;50.200;19.508;2023-11-21T02:55:39;7;4;3
34240;PMS7003;20503;50.200;19.508;2023-11-21T02:56:43;7;4;3
34240;PMS7003;20503;50.200;19.508;2023-11-21T02:57:46;6;5;4
34240;PMS7003;20503;50.200;19.508;2023-11-21T02:58:49;7;5;4
34240;PMS7003;20503;50.200;19.508;2023-11-21T02:59:51;7;6;4
34240;PMS7003;20503;50.200;19.508;2023-11-21T03:00:55;7;5;4
34240;PMS7003;20503;50.200;19.508;2023-11-21T03:01:58;7;4;4
34240;PMS7003;20503;50.200;19.508;2023-11-21T03:03:22;8;5;4
34240;PMS7003;20503;50.200;19.508;2023-11-21T03:04:26;5;5;4
34240;PMS7003;20503;50.200;19.508;2023-11-21T03:05:30;5;5;4
34240;PMS7003;20503;50.200;19.508;2023-11-21T03:06:32;6;4;3
34240;PMS7003;20503;50.200;19.508;2023-11-21T03:07:45;8;7;5
34240;PMS7003;20503;50.200;19.508;2023-11-21T03:08:49;7;5;4
34240;PMS7003;20503;50.200;19.508;2023-11-21T03:09:51;7;5;4
34240;PMS7003;20503;50.200;19.508;2023-11-21T03:10:54;8;5;4
34240;PMS7003;20503;50.200;19.508;2023-11-21T03:12:09;7;5;4
34240;PMS7003;20503;50.200;19.508;2023-11-21T03:13:18;9;6;4
34240;PMS7003;20503;50.200;19.508;2023-11-21T03:14:19;10;7;5
34240;PMS7003;20503;50.200;19.508;2023-11-21T03:15:21;10;7;5
34240;PMS7003;20503;50.200;19.508;2023-11-21T03:16:23;8;6;4
34240;PMS7003;20503;50.200;19.508;2023-11-21T03:17:26;8;6;4
34240;PMS7003;20503;50.200;19.508;2023-11-21T03:18:30;8;5;4
34240;PMS7003;20503;50.200;19.508;2023-11-21T03:19:33;8;6;4
34240;PMS7003;20503;50.200;19.508;2023-11-21T03:20:37;8;5;5
34240;PMS7003;20503;50.200;19.508;2023-11-21T03:21:39;9;6;4
34240;PMS7003;20503;50.200;19.508;2023-11-21T03:22:42;7;5;4
34240;PMS7003;20503;50.200;19.508;2023-11-21T03:23:45;7;5;4
34240;PMS7003;20503;50.200;19.508;2023-11-21T03:25:09;8;7;5
34240;PMS7003;20503;50.200;19.508;2023-11-21T03:26:13;9;6;5
34240;PMS7003;20503;50.200;19.508;2023-11-21T03:27:16;9;6;5
34240;PMS7003;20503;50.200;19.508;2023-11-21T03:28:20;8;6;5
34240;PMS7003;20503;50.200;19.508;2023-11-21T03:29:25;8;6;5
34240;PMS7003;20503;50.200;19.508;2023-11-21T03:30:47;8;6;4
34240;PMS7003;20503;50.200;19.508;2023-11-21T03:31:51;9;7;4
34240;PMS7003;20503;50.200;19.508;2023-11-21T03:32:52;9;7;4
34240;PMS7003;20503;50.200;19.508;2023-11-21T03:33:57;9;7;4
34240;PMS7003;20503;50.200;19.508;2023-11-21T03:35:00;9;7;4
34240;PMS7003;20503;50.200;19.508;2023-11-21T03:36:04;8;6;4
34240;PMS7003;20503;50.200;19.508;2023-11-21T03:37:10;6;5;4
34240;PMS7003;20503;50.200;19.508;2023-11-21T03:38:13;8;6;4
34240;PMS7003;20503;50.200;19.508;2023-11-21T03:39:16;7;5;4
34240;PMS7003;20503;50.200;19.508;2023-11-21T03:40:30;7;5;4
34240;PMS7003;20503;50.200;19.508;2023-11-21T03:41:34;7;5;4
34240;PMS7003;20503;50.200;19.508;2023-11-21T03:42:38;7;5;4
34240;PMS7003;20503;50.200;19.508;2023-11-21T03:43:42;7;5;4
34240;PMS7003;20503;50.200;19.508;2023-11-21T03:44:46;10;7;5
34240;PMS7003;20503;50.200;19.508;2023-11-21T03:45:53;8;5;5
34240;PMS7003;20503;50.200;19.508;2023-11-21T03:46:55;11;6;5
34240;PMS7003;20503;50.200;19.508;2023-11-21T03:47:59;10;7;5
34240;PMS7003;20503;50.200;19.508;2023-11-21T03:49:04;7;6;5
34240;PMS7003;20503;50.200;19.508;2023-11-21T03:50:06;11;8;5
34240;PMS7003;20503;50.200;19.508;2023-11-21T03:51:10;12;6;5
34240;PMS7003;20503;50.200;19.508;2023-11-21T03:52:12;12;6;5
34240;PMS7003;20503;50.200;19.508;2023-11-21T03:53:14;9;6;5
34240;PMS7003;20503;50.200;19.508;2023-11-21T03:54:17;7;5;4
34240;PMS7003;20503;50.200;19.508;2023-11-21T03:55:31;7;5;4
34240;PMS7003;20503;50.200;19.508;2023-11-21T03:56:34;10;5;4
34240;PMS7003;20503;50.200;19.508;2023-11-21T03:57:39;10;5;4
34240;PMS7003;20503;50.200;19.508;2023-11-21T03:58:42;9;6;5
34240;PMS7003;20503;50.200;19.508;2023-11-21T03:59:44;12;8;5
34240;PMS7003;20503;50.200;19.508;2023-11-21T04:00:47;12;8;5
34240;PMS7003;20503;50.200;19.508;2023-11-21T04:01:54;8;6;5
34240;PMS7003;20503;50.200;19.508;2023-11-21T04:02:58;8;6;5
34240;PMS7003;20503;50.200;19.508;2023-11-21T04:04:02;7;6;4
34240;PMS7003;20503;50.200;19.508;2023-11-21T04:05:05;8;5;4
34240;PMS7003;20503;50.200;19.508;2023-11-21T04:06:09;7;6;4
34240;PMS7003;20503;50.200;19.508;2023-11-21T04:07:11;10;7;5
34240;PMS7003;20503;50.200;19.508;2023-11-21T04:08:14;10;7;5
34240;PMS7003;20503;50.200;19.508;2023-11-21T04:09:15;8;5;4
34240;PMS7003;20503;50.200;19.508;2023-11-21T04:10:18;8;5;4
34240;PMS7003;20503;50.200;19.508;2023-11-21T04:11:23;7;5;4
34240;PMS7003;20503;50.200;19.508;2023-11-21T04:12:47;8;6;4
34240;PMS7003;20503;50.200;19.508;2023-11-21T04:13:50;9;5;5
34240;PMS7003;20503;50.200;19.508;2023-11-21T04:14:52;9;6;4
34240;PMS7003;20503;50.200;19.508;2023-11-21T04:15:55;9;6;4
34240;PMS7003;20503;50.200;19.508;2023-11-21T04:16:59;9;5;4
34240;PMS7003;20503;50.200;19.508;2023-11-21T04:18:02;9;5;4
34240;PMS7003;20503;50.200;19.508;2023-11-21T04:19:05;9;6;4
34240;PMS7003;20503;50.200;19.508;2023-11-21T04:20:09;9;6;4
34240;PMS7003;20503;50.200;19.508;2023-11-21T04:21:22;9;7;5
34240;PMS7003;20503;50.200;19.508;2023-11-21T04:22:27;9;7;5
34240;PMS7003;20503;50.200;19.508;2023-11-21T04:23:31;9;5;5
34240;PMS7003;20503;50.200;19.508;2023-11-21T04:24:34;9;5;5
34240;PMS7003;20503;50.200;19.508;2023-11-21T04:25:36;10;5;4
34240;PMS7003;20503;50.200;19.508;2023-11-21T04:26:39;9;7;4
34240;PMS7003;20503;50.200;19.508;2023-11-21T04:27:43;9;7;4
34240;PMS7003;20503;50.200;19.508;2023-11-21T04:28:45;9;6;5
34240;PMS7003;20503;50.200;19.508;2023-11-21T04:29:48;9;6;5
34240;PMS7003;20503;50.200;19.508;2023-11-21T04:30:51;8;6;5
34240;PMS7003;20503;50.200;19.508;2023-11-21T04:32:03;8;6;5
34240;PMS7003;20503;50.200;19.508;2023-11-21T04:33:07;10;7;5
34240;PMS7003;20503;50.200;19.508;2023-11-21T04:34:12;9;6;4
34240;PMS7003;20503;50.200;19.508;2023-11-21T04:35:16;9;6;4
34240;PMS7003;20503;50.200;19.508;2023-11-21T04:36:18;8;5;3
34240;PMS7003;20503;50.200;19.508;2023-11-21T04:37:21;8;5;3
34240;PMS7003;20503;50.200;19.508;2023-11-21T04:38:27;9;7;5
34240;PMS7003;20503;50.200;19.508;2023-11-21T04:39:31;9;7;5
34240;PMS7003;20503;50.200;19.508;2023-11-21T04:40:33;11;7;5
34240;PMS7003;20503;50.200;19.508;2023-11-21T04:41:37;10;7;5
34240;PMS7003;20503;50.200;19.508;2023-11-21T04:43:03;10;7;6
34240;PMS7003;20503;50.200;19.508;2023-11-21T04:44:08;10;6;4
34240;PMS7003;20503;50.200;19.508;2023-11-21T04:45:22;10;7;4
34240;PMS7003;20503;50.200;19.508;2023-11-21T04:46:25;10;6;4
34240;PMS7003;20503;50.200;19.508;2023-11-21T04:47:28;10;6;4
34240;PMS7003;20503;50.200;19.508;2023-11-21T04:48:33;9;6;5
34240;PMS7003;20503;50.200;19.508;2023-11-21T04:49:36;9;6;5
34240;PMS7003;20503;50.200;19.508;2023-11-21T04:50:41;9;6;4
34240;PMS7003;20503;50.200;19.508;2023-11-21T04:51:46;9;6;4
34240;PMS7003;20503;50.200;19.508;2023-11-21T04:52:50;9;6;4
34240;PMS7003;20503;50.200;19.508;2023-11-21T04:53:53;8;6;4
34240;PMS7003;20503;50.200;19.508;2023-11-21T04:54:57;12;6;5
34240;PMS7003;20503;50.200;19.508;2023-11-21T04:56:03;9;6;4
34240;PMS7003;20503;50.200;19.508;2023-11-21T04:57:06;9;6;4
34240;PMS7003;20503;50.200;19.508;2023-11-21T04:58:10;6;5;4
34240;PMS7003;20503;50.200;19.508;2023-11-21T04:59:14;6;5;4
34240;PMS7003;20503;50.200;19.508;2023-11-21T05:00:17;7;5;4
34240;PMS7003;20503;50.200;19.508;2023-11-21T05:01:20;7;5;4
34240;PMS7003;20503;50.200;19.508;2023-11-21T05:02:22;8;5;4
34240;PMS7003;20503;50.200;19.508;2023-11-21T05:03:24;7;5;4
34240;PMS7003;20503;50.200;19.508;2023-11-21T05:04:27;7;5;4
34240;PMS7003;20503;50.200;19.508;2023-11-21T05:05:31;9;5;4
34240;PMS7003;20503;50.200;19.508;2023-11-21T05:06:35;9;5;4
34240;PMS7003;20503;50.200;19.508;2023-11-21T05:07:41;8;5;4
34240;PMS7003;20503;50.200;19.508;2023-11-21T05:08:43;9;6;4
34240;PMS7003;20503;50.200;19.508;2023-11-21T05:09:44;10;6;4
34240;PMS7003;20503;50.200;19.508;2023-11-21T05:10:49;6;5;4
34240;PMS7003;20503;50.200;19.508;2023-11-21T05:12:04;10;6;4
34240;PMS7003;20503;50.200;19.508;2023-11-21T05:13:08;10;6;4
34240;PMS7003;20503;50.200;19.508;2023-11-21T05:14:11;10;6;4
34240;PMS7003;20503;50.200;19.508;2023-11-21T05:15:15;9;7;5
34240;PMS7003;20503;50.200;19.508;2023-11-21T05:16:19;9;6;4
34240;PMS7003;20503;50.200;19.508;2023-11-21T05:17:22;8;5;4
34240;PMS7003;20503;50.200;19.508;2023-11-21T05:18:25;9;6;4
34240;PMS7003;20503;50.200;19.508;2023-11-21T05:19:31;9;6;4
34240;PMS7003;20503;50.200;19.508;2023-11-21T05:20:36;10;9;5
34240;PMS7003;20503;50.200;19.508;2023-11-21T05:21:44;7;6;4
34240;PMS7003;20503;50.200;19.508;2023-11-21T05:22:49;9;8;5
34240;PMS7003;20503;50.200;19.508;2023-11-21T05:23:54;9;8;5
34240;PMS7003;20503;50.200;19.508;2023-11-21T05:25:19;8;6;4
34240;PMS7003;20503;50.200;19.508;2023-11-21T05:26:23;8;6;4
34240;PMS7003;20503;50.200;19.508;2023-11-21T05:27:27;8;6;4
34240;PMS7003;20503;50.200;19.508;2023-11-21T05:28:29;8;6;4
34240;PMS7003;20503;50.200;19.508;2023-11-21T05:29:52;7;4;3
34240;PMS7003;20503;50.200;19.508;2023-11-21T05:30:53;5;4;2
34240;PMS7003;20503;50.200;19.508;2023-11-21T05:31:55;5;4;2
34240;PMS7003;20503;50.200;19.508;2023-11-21T05:32:56;7;5;4
34240;PMS7003;20503;50.200;19.508;2023-11-21T05:34:00;7;5;4
34240;PMS7003;20503;50.200;19.508;2023-11-21T05:35:01;6;5;4
34240;PMS7003;20503;50.200;19.508;2023-11-21T05:36:03;6;5;4
34240;PMS7003;20503;50.200;19.508;2023-11-21T05:37:05;7;5;4
34240;PMS7003;20503;50.200;19.508;2023-11-21T05:38:07;8;5;4
34240;PMS7003;20503;50.200;19.508;2023-11-21T05:39:09;6;5;4
34240;PMS7003;20503;50.200;19.508;2023-11-21T05:40:13;11;6;4
34240;PMS7003;20503;50.200;19.508;2023-11-21T05:41:18;6;6;4
34240;PMS7003;20503;50.200;19.508;2023-11-21T05:42:22;6;4;4
34240;PMS7003;20503;50.200;19.508;2023-11-21T05:43:27;11;9;6
34240;PMS7003;20503;50.200;19.508;2023-11-21T05:44:36;11;9;6
34240;PMS7003;20503;50.200;19.508;2023-11-21T05:45:47;5;4;3
34240;PMS7003;20503;50.200;19.508;2023-11-21T05:46:50;5;4;2
34240;PMS7003;20503;50.200;19.508;2023-11-21T05:47:52;5;4;3
34240;PMS7003;20503;50.200;19.508;2023-11-21T05:48:55;7;5;3
34240;PMS7003;20503;50.200;19.508;2023-11-21T05:50:01;4;4;2
34240;PMS7003;20503;50.200;19.508;2023-11-21T05:51:04;6;5;4
34240;PMS7003;20503;50.200;19.508;2023-11-21T05:52:06;5;4;3
34240;PMS7003;20503;50.200;19.508;2023-11-21T05:53:09;5;4;3
34240;PMS7003;20503;50.200;19.508;2023-11-21T05:54:32;9;5;4
34240;PMS7003;20503;50.200;19.508;2023-11-21T05:55:34;7;6;5
34240;PMS7003;20503;50.200;19.508;2023-11-21T05:56:39;7;6;5
34240;PMS7003;20503;50.200;19.508;2023-11-21T05:57:42;7;5;4
34240;PMS7003;20503;50.200;19.508;2023-11-21T05:58:45;7;5;4
34240;PMS7003;20503;50.200;19.508;2023-11-21T05:59:48;7;5;4
34240;PMS7003;20503;50.200;19.508;2023-11-21T06:00:52;8;4;3
34240;PMS7003;20503;50.200;19.508;2023-11-21T06:01:54;6;4;3
34240;PMS7003;20503;50.200;19.508;2023-11-21T06:02:56;4;4;4
34240;PMS7003;20503;50.200;19.508;2023-11-21T06:03:59;4;4;4
34240;PMS7003;20503;50.200;19.508;2023-11-21T06:05:01;5;4;4
34240;PMS7003;20503;50.200;19.508;2023-11-21T06:06:07;5;4;4
34240;PMS7003;20503;50.200;19.508;2023-11-21T06:07:09;7;5;4
34240;PMS7003;20503;50.200;19.508;2023-11-21T06:08:13;8;6;4
34240;PMS7003;20503;50.200;19.508;2023-11-21T06:09:18;8;6;4
34240;PMS7003;20503;50.200;19.508;2023-11-21T06:10:26;6;4;3
34240;PMS7003;20503;50.200;19.508;2023-11-21T06:11:28;6;4;3
34240;PMS7003;20503;50.200;19.508;2023-11-21T06:12:32;5;5;4
34240;PMS7003;20503;50.200;19.508;2023-11-21T06:13:57;5;5;4
34240;PMS7003;20503;50.200;19.508;2023-11-21T06:15:04;5;5;4
34240;PMS7003;20503;50.200;19.508;2023-11-21T06:16:09;5;4;4
34240;PMS7003;20503;50.200;19.508;2023-11-21T06:17:14;5;4;4
34240;PMS7003;20503;50.200;19.508;2023-11-21T06:18:28;7;4;3
34240;PMS7003;20503;50.200;19.508;2023-11-21T06:19:32;7;4;3
34240;PMS7003;20503;50.200;19.508;2023-11-21T06:20:34;7;5;3
34240;PMS7003;20503;50.200;19.508;2023-11-21T06:21:38;7;5;3
34240;PMS7003;20503;50.200;19.508;2023-11-21T06:22:41;6;5;4
34240;PMS7003;20503;50.200;19.508;2023-11-21T06:23:43;9;6;5
34240;PMS7003;20503;50.200;19.508;2023-11-21T06:24:47;9;6;5
34240;PMS7003;20503;50.200;19.508;2023-11-21T06:25:49;7;5;4
34240;PMS7003;20503;50.200;19.508;2023-11-21T06:27:04;8;5;5
34240;PMS7003;20503;50.200;19.508;2023-11-21T06:28:07;9;7;5
34240;PMS7003;20503;50.200;19.508;2023-11-21T06:29:20;9;7;5
34240;PMS7003;20503;50.200;19.508;2023-11-21T06:30:24;8;5;5
34240;PMS7003;20503;50.200;19.508;2023-11-21T06:31:29;8;5;5
34240;PMS7003;20503;50.200;19.508;2023-11-21T06:32:34;8;6;5
34240;PMS7003;20503;50.200;19.508;2023-11-21T06:33:39;8;7;5
34240;PMS7003;20503;50.200;19.508;2023-11-21T06:34:44;8;7;5
34240;PMS7003;20503;50.200;19.508;2023-11-21T06:35:45;9;7;5
34240;PMS7003;20503;50.200;19.508;2023-11-21T06:36:48;9;7;5
34240;PMS7003;20503;50.200;19.508;2023-11-21T06:37:50;10;9;6
34240;PMS7003;20503;50.200;19.508;2023-11-21T06:38:54;11;8;5
34240;PMS7003;20503;50.200;19.508;2023-11-21T06:39:57;13;9;6
34240;PMS7003;20503;50.200;19.508;2023-11-21T06:40:59;13;9;6
34240;PMS7003;20503;50.200;19.508;2023-11-21T06:42:06;12;9;6
34240;PMS7003;20503;50.200;19.508;2023-11-21T06:43:09;12;9;6
34240;PMS7003;20503;50.200;19.508;2023-11-21T06:44:13;15;11;7
34240;PMS7003;20503;50.200;19.508;2023-11-21T06:45:15;15;11;7
34240;PMS7003;20503;50.200;19.508;2023-11-21T06:46:22;12;10;7
34240;PMS7003;20503;50.200;19.508;2023-11-21T06:47:24;10;9;5
34240;PMS7003;20503;50.200;19.508;2023-11-21T06:48:27;10;9;5
34240;PMS7003;20503;50.200;19.508;2023-11-21T06:49:31;11;8;6
34240;PMS7003;20503;50.200;19.508;2023-11-21T06:50:33;11;8;6
34240;PMS7003;20503;50.200;19.508;2023-11-21T06:51:35;9;8;5
34240;PMS7003;20503;50.200;19.508;2023-11-21T06:52:39;12;8;5
34240;PMS7003;20503;50.200;19.508;2023-11-21T06:53:42;10;7;5
34240;PMS7003;20503;50.200;19.508;2023-11-21T06:54:44;13;9;6
34240;PMS7003;20503;50.200;19.508;2023-11-21T06:57:11;13;10;6
34240;PMS7003;20503;50.200;19.508;2023-11-21T06:58:15;13;9;6
34240;PMS7003;20503;50.200;19.508;2023-11-21T06:59:18;13;9;6
34240;PMS7003;20503;50.200;19.508;2023-11-21T07:00:21;12;10;5
34240;PMS7003;20503;50.200;19.508;2023-11-21T07:01:24;13;9;6
34240;PMS7003;20503;50.200;19.508;2023-11-21T07:02:27;13;11;8
34240;PMS7003;20503;50.200;19.508;2023-11-21T07:03:30;13;11;8
34240;PMS7003;20503;50.200;19.508;2023-11-21T07:04:35;13;11;8
34240;PMS7003;20503;50.200;19.508;2023-11-21T07:05:37;17;12;8
34240;PMS7003;20503;50.200;19.508;2023-11-21T07:06:41;17;14;9
34240;PMS7003;20503;50.200;19.508;2023-11-21T07:07:48;15;11;8